Flugplatz Uetersen/Heist

METAR EDDW TAF EDDW
6 °C
°C
-
°C
16m
Wiek
01:06:04
LT
00:06
UTC
0 ft

1.000

2.000

3.000

4.000

5.000

FEW 2.700
VFR
<?= Yii::t('app', 'Wind direction') ?> <?= Yii::t('app', 'of'); ?>
260°
08:10
Wschód słońca
76%
Wilgotność
Siła wiatru
Zamknięte/Śnieg
Zasięg wzroku na RWY
Stan RWY
Widzialność pionowa
Min. widoczność
CAVOK
Trend
Korekta
Raport specjalny
1013 hPa
QNH
METAR EDDW 312350Z AUTO 26019KT 9999 FEW027 06/02 Q1013
Kilka chmur
3 kt
3 kt
10 km+
Widoczność
Brak
Sufit
19 kt
Wiatr
metar-taf.com/EDHE

Metar-Taf.com

Dekoder wizualny

My i strony trzecie śledzimy Twoje zachowanie internetowe na naszej stronie za pomocą plików cookie. Jeśli kontynuujesz, zakładamy, że zgadzasz się z naszymi polityka plików cookie.